Time;durP1;ratioP1;P1;durP2;ratioP2;P2;SDS_P1;SDS_P2;PMS_P1;PMS_P2;Temp;Humidity;BMP_temperature;BMP_pressure;BME280_temperature;BME280_humidity;BME280_pressure;Samples;Min_cycle;Max_cycle;Signal;HPM_P1;HPM_P2
2023/08/17 00:01:55;;;;;;;4.57;2.40;;;;;;;17.99;79.36;101897.66;6154414;23;20465;-60
2023/08/17 00:04:20;;;;;;;6.03;2.30;;;;;;;17.90;80.37;101901.44;6133225;23;20043;-60
2023/08/17 00:06:46;;;;;;;7.65;2.42;;;;;;;17.93;80.32;101900.47;6155856;23;20078;-60
2023/08/17 00:09:12;;;;;;;5.30;2.17;;;;;;;17.91;80.58;101899.63;6157277;23;20320;-60
2023/08/17 00:11:38;;;;;;;4.25;2.10;;;;;;;17.85;80.65;101892.69;6132431;23;20016;-60
2023/08/17 00:14:04;;;;;;;6.25;2.50;;;;;;;17.91;80.25;101895.19;6131454;23;20020;-60
2023/08/17 00:16:32;;;;;;;5.97;2.13;;;;;;;17.91;80.75;101892.53;6156405;23;20412;-60
2023/08/17 00:18:57;;;;;;;5.13;1.90;;;;;;;17.92;80.01;101890.78;6132458;23;20067;-59
2023/08/17 00:21:23;;;;;;;5.60;2.53;;;;;;;17.87;80.18;101887.34;6156160;23;20379;-60
2023/08/17 00:23:49;;;;;;;4.82;2.30;;;;;;;17.81;80.46;101878.66;6132352;23;20045;-60
2023/08/17 00:26:14;;;;;;;6.13;2.53;;;;;;;17.83;80.02;101891.84;6132306;23;20101;-60
2023/08/17 00:28:40;;;;;;;3.75;2.50;;;;;;;17.75;80.18;101884.06;6130849;23;20013;-60
2023/08/17 00:31:06;;;;;;;5.45;2.50;;;;;;;17.80;80.19;101887.50;6156016;23;20400;-60
2023/08/17 00:33:31;;;;;;;4.63;2.22;;;;;;;17.68;80.63;101882.50;6132319;23;20013;-59
2023/08/17 00:35:57;;;;;;;4.82;2.05;;;;;;;17.63;81.12;101879.97;6155747;23;20020;-59
2023/08/17 00:38:22;;;;;;;4.82;2.17;;;;;;;17.69;80.72;101880.72;6132099;23;20017;-59
2023/08/17 00:40:48;;;;;;;7.07;2.50;;;;;;;17.61;81.23;101875.59;6131448;23;20017;-59
2023/08/17 00:43:13;;;;;;;6.20;2.58;;;;;;;17.56;81.17;101877.50;6131331;23;20037;-60
2023/08/17 00:45:40;;;;;;;5.53;2.40;;;;;;;17.53;81.30;101872.25;6181517;23;20020;-60
2023/08/17 00:48:07;;;;;;;6.80;2.80;;;;;;;17.51;81.13;101880.25;6156432;23;20112;-60
2023/08/17 00:50:34;;;;;;;5.68;2.83;;;;;;;17.49;81.29;101875.00;6155560;23;20037;-61
2023/08/17 00:53:00;;;;;;;7.60;2.70;;;;;;;17.46;81.65;101876.84;6156356;23;20024;-59
2023/08/17 00:55:26;;;;;;;4.47;2.40;;;;;;;17.39;82.00;101885.84;6131614;23;20353;-59
2023/08/17 00:57:53;;;;;;;5.07;2.60;;;;;;;17.41;81.96;101887.56;6155982;23;20017;-60
2023/08/17 01:00:20;;;;;;;6.30;2.50;;;;;;;17.38;82.28;101884.13;6131467;23;20443;-59
2023/08/17 01:02:46;;;;;;;6.00;2.78;;;;;;;17.36;82.77;101899.19;6130729;23;20021;-60
2023/08/17 01:05:12;;;;;;;5.82;2.40;;;;;;;17.41;82.47;101889.34;6130402;23;20088;-60
2023/08/17 01:07:38;;;;;;;5.85;2.70;;;;;;;17.35;82.88;101897.44;6155415;23;20743;-59
2023/08/17 01:10:06;;;;;;;5.82;2.67;;;;;;;17.34;83.17;101893.94;6131328;23;20015;-60
2023/08/17 01:12:43;;;;;;;4.82;2.58;;;;;;;17.39;83.29;101896.47;6130830;23;20024;-60
2023/08/17 01:15:18;;;;;;;5.82;2.40;;;;;;;17.28;84.20;101888.75;6155691;23;20109;-61
2023/08/17 01:17:52;;;;;;;5.43;2.67;;;;;;;17.24;84.41;101882.66;6156489;23;20005;-60
2023/08/17 01:20:19;;;;;;;6.03;2.50;;;;;;;17.20;84.27;101883.63;6154678;23;20334;-60
2023/08/17 01:22:48;;;;;;;6.53;2.92;;;;;;;17.23;84.58;101872.97;6156873;23;20009;-60
2023/08/17 01:25:13;;;;;;;8.43;3.00;;;;;;;17.27;84.30;101881.72;6157623;23;20017;-59
2023/08/17 01:27:41;;;;;;;6.18;2.75;;;;;;;17.19;84.64;101883.69;6156284;23;20160;-60
2023/08/17 01:30:09;;;;;;;6.10;2.80;;;;;;;17.11;85.21;101886.47;6156129;23;20412;-60
2023/08/17 01:32:49;;;;;;;7.00;2.78;;;;;;;17.11;85.35;101887.38;6156021;23;20013;-59
2023/08/17 01:35:45;;;;;;;4.82;2.42;;;;;;;17.17;84.60;101885.47;6156602;23;20511;-60
2023/08/17 01:38:16;;;;;;;8.70;2.60;;;;;;;17.11;85.19;101881.19;6156930;23;20020;-60
2023/08/17 01:40:43;;;;;;;7.15;3.00;;;;;;;17.13;85.27;101874.09;6157170;23;20107;-60
2023/08/17 01:43:10;;;;;;;5.45;2.80;;;;;;;17.04;86.03;101871.63;6131921;23;20173;-60
2023/08/17 01:45:35;;;;;;;7.25;3.00;;;;;;;17.07;85.54;101868.94;6132774;23;20320;-60
2023/08/17 01:48:01;;;;;;;5.13;2.70;;;;;;;17.06;85.62;101873.34;6132700;23;20009;-60
2023/08/17 01:50:26;;;;;;;4.28;2.95;;;;;;;17.06;85.93;101875.13;6131971;23;20071;-60
2023/08/17 01:52:51;;;;;;;9.80;3.10;;;;;;;16.98;86.46;101870.00;6131827;23;20013;-60
2023/08/17 01:55:17;;;;;;;7.85;3.00;;;;;;;17.00;86.60;101872.63;6132195;23;20365;-60
2023/08/17 01:57:42;;;;;;;4.88;2.85;;;;;;;16.96;87.03;101872.69;6131703;23;20101;-60
2023/08/17 02:00:10;;;;;;;7.07;3.28;;;;;;;16.87;86.90;101878.16;6131967;23;20096;-60
2023/08/17 02:02:36;;;;;;;8.02;3.33;;;;;;;16.90;86.77;101877.25;6131212;23;20020;-60
2023/08/17 02:05:02;;;;;;;5.78;2.80;;;;;;;16.90;86.99;101872.81;6156342;23;20025;-60
2023/08/17 02:07:28;;;;;;;7.05;2.97;;;;;;;16.86;86.76;101870.25;6132073;23;20083;-60
2023/08/17 02:09:53;;;;;;;6.18;2.88;;;;;;;16.79;87.42;101874.78;6156404;23;20001;-59
2023/08/17 02:12:19;;;;;;;8.88;3.20;;;;;;;16.80;87.37;101871.25;6130961;23;20024;-59
2023/08/17 02:14:44;;;;;;;9.27;3.38;;;;;;;16.88;86.73;101873.75;6131853;23;20113;-60
2023/08/17 02:17:10;;;;;;;7.78;3.28;;;;;;;16.78;86.89;101878.38;6131794;23;20247;-60
2023/08/17 02:19:35;;;;;;;6.85;3.13;;;;;;;16.75;86.69;101879.28;6131703;23;20138;-59
2023/08/17 02:22:01;;;;;;;6.22;2.75;;;;;;;16.76;86.88;101880.16;6155736;23;20092;-60
2023/08/17 02:24:27;;;;;;;6.55;2.80;;;;;;;16.66;86.39;101876.81;6131420;23;20013;-60
2023/08/17 02:26:52;;;;;;;4.97;2.75;;;;;;;16.71;86.66;101874.09;6130116;23;20068;-59
2023/08/17 02:29:18;;;;;;;6.45;2.83;;;;;;;16.65;86.48;101877.75;6130907;23;20023;-60
2023/08/17 02:31:43;;;;;;;6.43;2.92;;;;;;;16.60;86.66;101877.81;6132654;23;20067;-60
2023/08/17 02:34:09;;;;;;;5.70;3.30;;;;;;;16.62;86.48;101872.50;6133161;23;20016;-59
2023/08/17 02:36:38;;;;;;;5.40;3.13;;;;;;;16.56;86.54;101873.47;6133305;23;20013;-59
2023/08/17 02:39:03;;;;;;;6.50;3.55;;;;;;;16.49;86.74;101871.00;6159167;23;20378;-60
2023/08/17 02:41:30;;;;;;;5.22;2.78;;;;;;;16.53;86.18;101870.03;6132943;23;20416;-60
2023/08/17 02:43:56;;;;;;;5.30;2.92;;;;;;;16.49;86.56;101863.06;6156864;23;20355;-59
2023/08/17 02:46:21;;;;;;;4.82;2.92;;;;;;;16.51;86.00;101856.00;6157808;23;20013;-59
2023/08/17 02:48:47;;;;;;;5.80;2.75;;;;;;;16.47;86.40;101856.94;6132705;23;20016;-59
2023/08/17 02:51:13;;;;;;;5.57;2.67;;;;;;;16.45;86.33;101864.91;6155961;23;20478;-60
2023/08/17 02:53:38;;;;;;;3.75;2.58;;;;;;;16.45;86.19;101863.13;6132722;23;20063;-59
2023/08/17 02:56:04;;;;;;;6.75;3.22;;;;;;;16.43;86.23;101861.41;6132613;23;20017;-59
2023/08/17 02:58:29;;;;;;;5.13;2.60;;;;;;;16.42;86.25;101854.38;6132072;23;20004;-59
2023/08/17 03:00:55;;;;;;;6.57;2.70;;;;;;;16.48;85.76;101851.63;6156106;23;20008;-59
2023/08/17 03:03:20;;;;;;;6.15;2.75;;;;;;;16.45;85.71;101867.56;6132754;23;20013;-59
2023/08/17 03:05:46;;;;;;;5.28;2.63;;;;;;;16.47;85.69;101860.44;6132358;23;20096;-60
2023/08/17 03:08:11;;;;;;;4.65;2.70;;;;;;;16.45;86.06;101862.28;6132860;23;20458;-60
2023/08/17 03:10:37;;;;;;;5.97;3.05;;;;;;;16.45;86.19;101856.97;6132387;23;20352;-60
2023/08/17 03:13:03;;;;;;;6.30;2.80;;;;;;;16.50;86.22;101862.19;6156384;23;20051;-60
2023/08/17 03:15:28;;;;;;;4.55;2.50;;;;;;;16.45;85.57;101855.19;6157867;23;20435;-60
2023/08/17 03:17:54;;;;;;;5.60;2.70;;;;;;;16.45;85.35;101857.84;6157418;23;20016;-60
2023/08/17 03:20:19;;;;;;;5.05;2.58;;;;;;;16.41;85.81;101857.94;6132459;23;20012;-60
2023/08/17 03:22:44;;;;;;;7.28;2.85;;;;;;;16.42;86.20;101847.31;6132441;23;20719;-60
2023/08/17 03:25:10;;;;;;;4.75;2.35;;;;;;;16.42;86.04;101854.38;6132666;23;20016;-60
2023/08/17 03:27:36;;;;;;;7.40;3.20;;;;;;;16.37;86.46;101857.13;6131707;23;20388;-60
2023/08/17 03:30:02;;;;;;;6.28;2.53;;;;;;;16.40;85.66;101848.25;6157214;23;20502;-60
2023/08/17 03:32:28;;;;;;;4.75;2.75;;;;;;;16.32;86.30;101858.09;6182339;23;20051;-60
2023/08/17 03:34:54;;;;;;;5.68;2.58;;;;;;;16.36;86.44;101847.44;6156788;23;20005;-60
2023/08/17 03:37:19;;;;;;;5.88;2.72;;;;;;;16.29;86.88;101848.44;6133247;23;20016;-60
2023/08/17 03:39:45;;;;;;;5.55;2.67;;;;;;;16.28;87.03;101847.59;6132814;23;20013;-60
2023/08/17 03:42:10;;;;;;;5.68;2.58;;;;;;;16.30;86.76;101844.91;6131171;23;20111;-60
2023/08/17 03:44:36;;;;;;;6.40;2.80;;;;;;;16.30;86.46;101839.63;6132955;23;20104;-60
2023/08/17 03:47:01;;;;;;;4.40;2.58;;;;;;;16.31;86.24;101845.81;6133151;23;20024;-60
2023/08/17 03:49:26;;;;;;;7.47;2.75;;;;;;;16.32;86.04;101843.13;6156203;23;20416;-60
2023/08/17 03:51:52;;;;;;;6.30;2.78;;;;;;;16.31;86.21;101843.16;6131690;23;20016;-60
2023/08/17 03:54:18;;;;;;;7.93;2.72;;;;;;;16.30;86.56;101839.63;6132632;23;20009;-60
2023/08/17 03:56:44;;;;;;;5.82;2.78;;;;;;;16.28;86.83;101836.16;6132533;23;20116;-60
2023/08/17 03:59:09;;;;;;;6.47;2.75;;;;;;;16.26;86.87;101844.13;6157047;23;20053;-60
2023/08/17 04:01:34;;;;;;;6.07;2.42;;;;;;;16.32;86.30;101835.19;6131810;23;20028;-60
2023/08/17 04:04:00;;;;;;;5.75;2.75;;;;;;;16.33;85.97;101844.00;6132991;23;20437;-61
2023/08/17 04:06:25;;;;;;;5.93;2.35;;;;;;;16.25;86.83;101847.66;6132924;23;20273;-60
2023/08/17 04:08:51;;;;;;;4.40;2.40;;;;;;;16.30;86.24;101846.69;6133194;23;20403;-60
2023/08/17 04:11:16;;;;;;;4.05;2.30;;;;;;;16.33;86.28;101851.94;6132659;23;20355;-60
2023/08/17 04:13:42;;;;;;;4.88;2.58;;;;;;;16.27;86.67;101855.56;6156808;23;20446;-60
2023/08/17 04:16:07;;;;;;;7.72;2.60;;;;;;;16.31;86.29;101859.03;6133228;23;20021;-60
2023/08/17 04:18:32;;;;;;;6.10;2.38;;;;;;;16.32;86.59;101858.09;6133057;23;20005;-60
2023/08/17 04:20:58;;;;;;;6.75;2.55;;;;;;;16.33;86.33;101865.16;6157264;23;20012;-60
2023/08/17 04:23:23;;;;;;;8.63;2.83;;;;;;;16.28;86.34;101866.09;6133324;23;20024;-60
2023/08/17 04:25:49;;;;;;;8.25;3.33;;;;;;;16.23;86.98;101864.44;6157363;23;20020;-60
2023/08/17 04:28:14;;;;;;;6.80;2.28;;;;;;;16.23;86.51;101873.28;6132072;23;20093;-60
2023/08/17 04:30:40;;;;;;;4.75;2.55;;;;;;;16.27;86.64;101884.66;6131398;23;20016;-60
2023/08/17 04:33:08;;;;;;;5.95;2.47;;;;;;;16.20;86.75;101875.94;6156572;23;20032;-60
2023/08/17 04:35:33;;;;;;;4.53;2.40;;;;;;;16.23;87.00;101881.22;6156053;23;20092;-60
2023/08/17 04:37:59;;;;;;;5.13;2.60;;;;;;;16.22;87.37;101874.16;6179822;23;20154;-60
2023/08/17 04:40:24;;;;;;;5.93;2.63;;;;;;;16.17;87.36;101880.44;6130908;23;20005;-60
2023/08/17 04:42:50;;;;;;;6.55;2.70;;;;;;;16.18;87.26;101876.91;6131399;23;20075;-60
2023/08/17 04:45:15;;;;;;;5.75;2.58;;;;;;;16.18;87.18;101875.13;6107618;23;20016;-60
2023/08/17 04:47:41;;;;;;;6.68;2.63;;;;;;;16.21;87.68;101875.06;6131977;23;20012;-60
2023/08/17 04:50:07;;;;;;;7.10;2.70;;;;;;;16.19;87.74;101884.81;6130996;23;20013;-60
2023/08/17 04:52:32;;;;;;;7.07;2.90;;;;;;;16.21;87.61;101883.00;6131315;23;20339;-60
2023/08/17 04:54:57;;;;;;;7.20;2.78;;;;;;;16.19;87.47;101879.53;6155652;23;20016;-60
2023/08/17 04:57:24;;;;;;;6.90;2.53;;;;;;;16.17;87.66;101877.78;6131096;23;20008;-60
2023/08/17 04:59:50;;;;;;;5.38;2.30;;;;;;;16.14;87.93;101876.06;6132098;23;20027;-60
2023/08/17 05:02:16;;;;;;;7.70;2.97;;;;;;;16.18;87.47;101875.13;6130346;23;20102;-60
2023/08/17 05:04:41;;;;;;;4.95;2.60;;;;;;;16.16;87.71;101870.75;6156304;23;20312;-60
2023/08/17 05:07:07;;;;;;;4.78;2.88;;;;;;;16.18;87.74;101884.84;6131726;23;20373;-60
2023/08/17 05:09:33;;;;;;;5.65;2.92;;;;;;;16.23;87.95;101880.31;6132937;23;20043;-60
2023/08/17 05:11:58;;;;;;;7.97;2.85;;;;;;;16.28;87.68;101873.19;6131121;23;20013;-60
2023/08/17 05:14:24;;;;;;;5.50;2.80;;;;;;;16.30;88.06;101876.66;6155835;23;20088;-60
2023/08/17 05:16:49;;;;;;;8.75;3.15;;;;;;;16.27;88.12;101877.56;6183454;23;20377;-60
2023/08/17 05:19:15;;;;;;;5.28;2.90;;;;;;;16.31;87.76;101865.19;6132001;23;20078;-60
2023/08/17 05:21:40;;;;;;;5.32;3.00;;;;;;;16.38;88.36;101868.59;6156261;23;20444;-60
2023/08/17 05:24:06;;;;;;;7.43;3.22;;;;;;;16.36;87.92;101867.72;6157355;23;20435;-60
2023/08/17 05:26:31;;;;;;;4.78;3.00;;;;;;;16.35;88.11;101872.16;6132657;23;20019;-60
2023/08/17 05:28:57;;;;;;;4.80;2.60;;;;;;;16.33;88.10;101860.72;6132112;23;20447;-60
2023/08/17 05:31:22;;;;;;;8.85;3.05;;;;;;;16.31;87.89;101867.81;6132445;23;20016;-60
2023/08/17 05:33:48;;;;;;;6.72;3.10;;;;;;;16.35;88.04;101865.97;6132716;23;20017;-60
2023/08/17 05:36:14;;;;;;;6.47;3.25;;;;;;;16.45;87.89;101872.84;6156741;23;20035;-60
2023/08/17 05:38:39;;;;;;;5.35;2.78;;;;;;;16.57;87.25;101869.09;6157811;23;20012;-60
2023/08/17 05:41:05;;;;;;;6.57;2.83;;;;;;;16.91;86.77;101871.94;6132640;23;20013;-60
2023/08/17 05:43:33;;;;;;;6.82;3.00;;;;;;;17.53;85.42;101867.84;6156200;23;20048;-60
2023/08/17 05:46:02;;;;;;;5.78;2.50;;;;;;;18.29;81.01;101877.41;6157429;23;20016;-60
2023/08/17 05:48:28;;;;;;;4.85;2.70;;;;;;;19.11;77.48;101871.53;6132600;23;20312;-60
2023/08/17 05:50:55;;;;;;;9.18;3.00;;;;;;;19.45;76.33;101875.75;6131002;23;20040;-60
2023/08/17 05:53:21;;;;;;;5.90;2.55;;;;;;;19.06;75.64;101870.78;6180081;23;20095;-60
2023/08/17 05:55:47;;;;;;;4.70;2.42;;;;;;;18.79;77.01;101873.31;6157219;23;20274;-60
2023/08/17 05:58:13;;;;;;;8.27;2.80;;;;;;;18.43;77.57;101876.13;6107545;23;20005;-60
2023/08/17 06:00:38;;;;;;;6.60;2.50;;;;;;;18.26;78.29;101879.25;6130274;23;20012;-60
2023/08/17 06:03:04;;;;;;;6.93;3.10;;;;;;;17.90;78.71;101888.16;6105591;23;20123;-60
2023/08/17 06:05:30;;;;;;;6.93;3.10;;;;;;;17.84;79.89;101890.94;6131368;23;20029;-60
2023/08/17 06:07:56;;;;;;;4.82;3.03;;;;;;;17.59;80.38;101899.50;6133734;23;20017;-60
2023/08/17 06:10:25;;;;;;;6.70;2.88;;;;;;;17.48;80.94;101897.13;6133486;23;20024;-60
2023/08/17 06:12:54;;;;;;;6.50;2.72;;;;;;;17.46;82.54;101903.34;6158269;23;20001;-60
2023/08/17 06:15:20;;;;;;;5.80;3.22;;;;;;;17.35;82.93;101906.25;6158940;23;20012;-60
2023/08/17 06:17:46;;;;;;;7.38;3.35;;;;;;;17.34;82.91;101909.81;6158157;23;20009;-60
2023/08/17 06:20:12;;;;;;;6.85;3.58;;;;;;;17.18;83.35;101898.66;6157807;23;20096;-60
2023/08/17 06:22:37;;;;;;;7.43;3.10;;;;;;;17.24;83.67;101897.66;6130298;23;20136;-60
2023/08/17 06:25:05;;;;;;;5.75;3.20;;;;;;;17.15;83.44;101898.75;6184728;23;20009;-60
2023/08/17 06:27:30;;;;;;;7.25;2.60;;;;;;;17.10;84.88;101900.66;6132916;23;20328;-60
2023/08/17 06:29:56;;;;;;;7.15;2.88;;;;;;;16.96;84.87;101893.84;6133239;23;20035;-60
2023/08/17 06:32:21;;;;;;;7.22;3.83;;;;;;;16.94;85.19;101894.81;6131386;23;20023;-60
2023/08/17 06:34:46;;;;;;;6.82;3.33;;;;;;;16.89;87.07;101891.38;6131985;23;20019;-60
2023/08/17 06:37:12;;;;;;;7.43;3.03;;;;;;;16.99;86.15;101898.22;6156524;23;20024;-60
2023/08/17 06:39:37;;;;;;;7.85;3.38;;;;;;;16.99;86.18;101892.06;6157074;23;20020;-60
2023/08/17 06:42:03;;;;;;;6.88;3.60;;;;;;;16.89;85.67;101886.94;6156835;23;20538;-60
2023/08/17 06:44:30;;;;;;;7.82;3.42;;;;;;;16.85;85.92;101893.22;6132772;23;20060;-60
2023/08/17 06:46:56;;;;;;;6.60;3.83;;;;;;;16.88;86.82;101894.94;6157219;23;20592;-60
2023/08/17 06:49:22;;;;;;;6.97;3.60;;;;;;;16.91;86.69;101895.75;6130812;23;20013;-60
2023/08/17 06:51:47;;;;;;;6.85;3.50;;;;;;;16.95;86.25;101896.53;6131889;23;20316;-60
2023/08/17 06:54:13;;;;;;;8.02;3.70;;;;;;;17.00;86.04;101896.47;6132498;23;20028;-60
2023/08/17 06:56:38;;;;;;;9.13;3.65;;;;;;;16.91;85.45;101895.75;6133577;23;20410;-60
2023/08/17 06:59:04;;;;;;;5.85;3.45;;;;;;;17.03;86.72;101891.97;6131810;23;20031;-60
2023/08/17 07:01:29;;;;;;;6.93;3.25;;;;;;;17.02;87.06;101900.78;6157365;23;20009;-60
2023/08/17 07:03:55;;;;;;;7.38;3.97;;;;;;;17.14;86.25;101902.31;6133389;23;20175;-60
2023/08/17 07:06:21;;;;;;;9.40;4.03;;;;;;;17.11;85.55;101905.91;6157145;23;20058;-60
2023/08/17 07:08:46;;;;;;;6.00;3.38;;;;;;;17.15;85.91;101901.41;6133708;23;20028;-60
2023/08/17 07:11:12;;;;;;;8.15;3.90;;;;;;;17.06;85.19;101912.22;6156589;23;20431;-60
2023/08/17 07:13:37;;;;;;;6.72;3.90;;;;;;;17.01;84.66;101907.03;6132136;23;20005;-60
2023/08/17 07:16:03;;;;;;;7.15;3.78;;;;;;;17.06;86.09;101912.22;6156854;23;20020;-60
2023/08/17 07:18:28;;;;;;;7.63;4.00;;;;;;;17.07;86.34;101906.88;6157396;23;20172;-60
2023/08/17 07:20:53;;;;;;;6.95;4.10;;;;;;;17.19;86.82;101904.88;6155908;23;20048;-60
2023/08/17 07:23:19;;;;;;;8.15;3.63;;;;;;;17.33;86.89;101905.41;6131136;23;20021;-60
2023/08/17 07:25:46;;;;;;;6.82;3.65;;;;;;;17.36;84.94;101908.00;6131374;23;20096;-60
2023/08/17 07:28:14;;;;;;;11.25;4.35;;;;;;;17.38;86.13;101910.59;6153333;23;20072;-60
2023/08/17 07:30:40;;;;;;;7.95;4.05;;;;;;;17.36;85.73;101907.13;6155907;23;20023;-59
2023/08/17 07:33:05;;;;;;;7.03;3.70;;;;;;;17.44;85.75;101907.81;6154917;23;20107;-60
2023/08/17 07:35:31;;;;;;;8.07;3.53;;;;;;;17.48;85.47;101904.19;6132624;23;20116;-60
2023/08/17 07:37:56;;;;;;;8.85;4.03;;;;;;;17.34;86.34;101912.47;6155537;23;20016;-60
2023/08/17 07:40:22;;;;;;;14.32;4.47;;;;;;;17.44;85.54;101907.81;6132860;23;20012;-60
2023/08/17 07:42:48;;;;;;;7.07;3.75;;;;;;;17.35;84.38;101906.25;6130591;23;20015;-60
2023/08/17 07:45:13;;;;;;;9.25;4.40;;;;;;;17.40;84.57;101911.47;6108261;23;20096;-60
2023/08/17 07:47:39;;;;;;;8.23;4.53;;;;;;;17.41;85.37;101907.88;6131682;23;20071;-60
2023/08/17 07:50:05;;;;;;;7.68;4.18;;;;;;;17.57;84.45;101909.28;6132218;23;20013;-60
2023/08/17 07:52:30;;;;;;;9.45;3.80;;;;;;;17.51;84.76;101905.88;6132392;23;20016;-60
2023/08/17 07:54:56;;;;;;;10.43;3.55;;;;;;;17.56;85.44;101910.19;6133271;23;20420;-60
2023/08/17 07:57:21;;;;;;;7.65;4.00;;;;;;;17.49;83.62;101906.78;6157022;23;20016;-60
2023/08/17 07:59:47;;;;;;;10.85;4.53;;;;;;;17.62;84.92;101907.38;6131967;23;20074;-60
2023/08/17 08:02:13;;;;;;;8.15;3.72;;;;;;;17.56;84.33;101911.97;6177167;23;20336;-60
2023/08/17 08:04:38;;;;;;;7.97;3.92;;;;;;;17.60;84.44;101921.59;6122006;23;20472;-60
2023/08/17 08:07:04;;;;;;;5.32;3.50;;;;;;;17.63;84.56;101919.72;6101031;23;20021;-60
2023/08/17 08:09:29;;;;;;;7.32;3.75;;;;;;;17.57;84.00;101919.88;6177426;23;20021;-60
2023/08/17 08:11:55;;;;;;;6.90;4.03;;;;;;;17.56;84.06;101920.78;6176550;23;20104;-60
2023/08/17 08:14:20;;;;;;;6.82;4.00;;;;;;;17.58;83.89;101923.38;6101861;23;20041;-61
2023/08/17 08:16:47;;;;;;;6.55;3.47;;;;;;;17.60;84.39;101917.16;6151871;23;20013;-61
2023/08/17 08:19:12;;;;;;;8.65;3.85;;;;;;;17.50;84.06;101923.56;6127953;23;20097;-62
2023/08/17 08:21:38;;;;;;;7.43;3.63;;;;;;;17.63;84.92;101926.81;6176936;23;20029;-61
2023/08/17 08:24:03;;;;;;;14.25;4.22;;;;;;;17.51;86.32;101917.34;6177082;23;20403;-61
2023/08/17 08:26:29;;;;;;;7.47;4.10;;;;;;;17.49;84.06;101919.19;6126988;23;20013;-60
2023/08/17 08:28:54;;;;;;;7.25;3.80;;;;;;;17.53;85.05;101920.84;6125888;23;20100;-61
2023/08/17 08:31:20;;;;;;;6.20;3.67;;;;;;;17.45;85.88;101917.50;6127696;23;20024;-60
2023/08/17 08:33:45;;;;;;;9.60;4.20;;;;;;;17.39;84.02;101922.94;6127522;23;20013;-61
2023/08/17 08:36:10;;;;;;;10.77;3.95;;;;;;;17.32;84.72;101922.22;6127234;23;20013;-60
2023/08/17 08:38:37;;;;;;;8.57;4.60;;;;;;;17.39;85.32;101925.59;6102639;23;20010;-61
2023/08/17 08:41:02;;;;;;;5.50;4.25;;;;;;;17.36;86.95;101925.69;6152336;23;20400;-61
2023/08/17 08:43:28;;;;;;;8.07;4.00;;;;;;;17.31;86.38;101929.31;6151225;23;20010;-61
2023/08/17 08:45:57;;;;;;;8.15;4.32;;;;;;;17.32;85.41;101932.81;6176835;23;20048;-61
2023/08/17 08:48:26;;;;;;;8.48;4.43;;;;;;;17.24;85.94;101933.00;6152626;23;20011;-60
2023/08/17 08:50:54;;;;;;;7.50;4.25;;;;;;;17.27;86.41;101935.56;6176196;23;20099;-60
2023/08/17 08:53:31;;;;;;;9.18;4.68;;;;;;;17.21;85.62;101924.22;6151252;23;20023;-60
2023/08/17 08:56:01;;;;;;;8.40;4.88;;;;;;;17.32;86.67;101922.22;6177164;23;20332;-61
2023/08/17 08:58:29;;;;;;;8.23;4.78;;;;;;;17.19;86.79;101916.31;6151657;23;20109;-60
2023/08/17 09:00:57;;;;;;;7.38;4.95;;;;;;;17.13;86.18;101912.03;6177347;23;20037;-60
2023/08/17 09:03:23;;;;;;;9.82;5.00;;;;;;;17.14;86.54;101908.47;6151996;23;20010;-60
2023/08/17 09:05:50;;;;;;;8.32;5.30;;;;;;;17.17;87.03;101911.94;6175667;23;20034;-60
2023/08/17 09:08:23;;;;;;;7.72;5.47;;;;;;;17.22;87.30;101912.72;6176245;23;20010;-60
2023/08/17 09:10:49;;;;;;;11.25;5.60;;;;;;;17.22;87.17;101910.94;6176632;23;20057;-60
2023/08/17 09:13:14;;;;;;;11.20;6.18;;;;;;;17.10;87.33;101911.25;6126828;23;20503;-61
2023/08/17 09:15:40;;;;;;;13.30;6.03;;;;;;;17.09;87.44;101904.19;6152254;23;20018;-60
2023/08/17 09:18:08;;;;;;;10.00;5.80;;;;;;;17.05;86.77;101907.81;6126652;23;20066;-67
2023/08/17 09:20:45;;;;;;;10.27;6.45;;;;;;;17.03;87.93;101909.63;6151939;23;20013;-60
2023/08/17 09:23:19;;;;;;;10.60;6.93;;;;;;;17.03;88.65;101906.97;6173834;23;20085;-60
2023/08/17 09:25:46;;;;;;;12.95;7.35;;;;;;;17.05;88.98;101903.41;6174839;23;20096;-60
2023/08/17 09:28:17;;;;;;;12.57;6.97;;;;;;;17.21;89.54;101898.63;6150245;23;20108;-60
2023/08/17 09:31:00;;;;;;;12.43;6.47;;;;;;;17.26;88.27;101895.88;6152079;23;20305;-60
2023/08/17 09:33:29;;;;;;;12.32;6.68;;;;;;;17.28;87.27;101892.28;6176316;23;20009;-61
2023/08/17 09:35:57;;;;;;;11.38;6.70;;;;;;;17.46;89.45;101898.06;6151958;23;20500;-60
2023/08/17 09:38:23;;;;;;;11.35;7.05;;;;;;;17.56;88.36;101893.41;6126179;23;20069;-60
2023/08/17 09:40:49;;;;;;;12.30;7.35;;;;;;;17.65;87.95;101901.13;6177072;23;20393;-60
2023/08/17 09:43:15;;;;;;;13.25;6.85;;;;;;;17.71;87.22;101895.66;6128737;23;20348;-60
2023/08/17 09:45:47;;;;;;;9.10;6.72;;;;;;;17.65;87.50;101898.47;6152867;23;20439;-60
2023/08/17 09:48:17;;;;;;;11.02;6.45;;;;;;;17.59;86.37;101895.97;6153622;23;20021;-60
2023/08/17 09:50:43;;;;;;;12.17;7.07;;;;;;;17.69;87.16;101883.38;6177795;23;20456;-61
2023/08/17 09:53:13;;;;;;;11.52;6.45;;;;;;;17.65;86.98;101886.09;6152754;23;20340;-60
2023/08/17 09:55:41;;;;;;;10.05;7.38;;;;;;;17.66;86.87;101894.94;6178215;23;20005;-60
2023/08/17 09:58:07;;;;;;;13.23;7.97;;;;;;;17.64;86.35;101886.13;6152745;23;20010;-60
2023/08/17 10:00:34;;;;;;;10.35;7.57;;;;;;;17.65;87.29;101896.69;6129271;23;20005;-60
2023/08/17 10:03:02;;;;;;;13.23;7.93;;;;;;;17.54;87.69;101893.44;6153558;23;20304;-60
2023/08/17 10:05:31;;;;;;;10.70;7.88;;;;;;;17.51;88.58;101893.50;6176897;23;20060;-60
2023/08/17 10:07:59;;;;;;;12.75;8.07;;;;;;;17.48;87.49;101896.22;6177751;23;20005;-60
2023/08/17 10:19:29;;;;;;;13.85;9.50;;;;;;;17.56;89.65;101877.50;6211718;23;20035;-59
2023/08/17 10:22:08;;;;;;;13.60;8.85;;;;;;;17.58;88.73;101876.53;6179389;22;20033;-59
2023/08/17 10:29:44;;;;;;;14.45;9.63;;;;;;;17.72;88.10;101846.19;6214250;23;20048;-59
2023/08/17 10:32:12;;;;;;;12.77;8.63;;;;;;;17.93;88.90;101856.25;6186581;23;20407;-60
2023/08/17 10:34:38;;;;;;;14.45;9.13;;;;;;;18.04;89.84;101855.97;6185468;23;20008;-60
2023/08/17 10:37:04;;;;;;;14.82;8.90;;;;;;;18.11;88.58;101860.19;6217318;23;20397;-59
2023/08/17 10:39:34;;;;;;;15.07;8.65;;;;;;;18.13;87.34;101865.44;6192018;23;20385;-60
2023/08/17 10:42:01;;;;;;;11.68;7.95;;;;;;;18.13;86.10;101860.16;6128439;23;20470;-60
2023/08/17 10:50:24;;;;;;;12.98;8.23;;;;;;;18.26;87.00;101850.97;6182968;22;20032;-59
2023/08/17 10:52:53;;;;;;;13.68;8.00;;;;;;;18.44;86.44;101870.78;6157761;23;20111;-59
2023/08/17 10:55:54;;;;;;;14.93;8.23;;;;;;;18.49;86.90;101865.38;6182817;23;20005;-60
2023/08/17 10:58:20;;;;;;;13.45;7.93;;;;;;;18.36;85.25;101864.84;6181140;23;20095;-60
2023/08/17 11:00:45;;;;;;;11.85;8.48;;;;;;;18.44;86.16;101864.63;6133095;23;20039;-60
2023/08/17 11:03:20;;;;;;;13.25;8.05;;;;;;;18.35;85.59;101861.31;6134196;23;20299;-60
2023/08/17 11:05:53;;;;;;;10.23;7.78;;;;;;;18.46;86.79;101862.78;6158504;23;20013;-61
2023/08/17 11:08:34;;;;;;;12.10;7.78;;;;;;;18.52;85.87;101865.28;6182072;23;20013;-62
2023/08/17 11:11:10;;;;;;;11.40;8.05;;;;;;;18.55;85.43;101870.50;6182483;23;20374;-62
2023/08/17 11:13:40;;;;;;;12.35;8.55;;;;;;;18.60;85.70;101868.56;6158223;23;20009;-62
2023/08/17 11:16:06;;;;;;;;;;;;;;;18.74;83.58;101865.50;6182909;23;20427;-62
2023/08/17 11:18:32;;;;;;;16.20;9.68;;;;;;;18.63;85.62;101868.50;6182329;23;19915;-62
2023/08/17 11:20:58;;;;;;;13.13;8.85;;;;;;;18.74;85.49;101873.47;6157057;23;20086;-62
2023/08/17 11:23:24;;;;;;;15.02;8.43;;;;;;;18.63;84.06;101873.81;6157716;23;20016;-62
2023/08/17 11:25:52;;;;;;;12.88;9.38;;;;;;;18.62;85.65;101872.06;6157484;23;20013;-62
2023/08/17 11:28:18;;;;;;;12.10;9.20;;;;;;;18.60;85.09;101878.31;6181771;23;20155;-62
2023/08/17 11:30:55;;;;;;;11.13;8.48;;;;;;;18.76;85.05;101876.06;6156824;23;20016;-62
2023/08/17 11:33:21;;;;;;;13.43;8.48;;;;;;;18.79;83.81;101868.00;6159307;23;20103;-62
2023/08/17 11:35:49;;;;;;;13.18;9.10;;;;;;;18.75;84.58;101869.03;6157271;23;20017;-61
2023/08/17 11:38:15;;;;;;;14.02;10.40;;;;;;;18.68;84.20;101877.16;6134410;23;20343;-62
2023/08/17 11:40:40;;;;;;;12.07;9.73;;;;;;;18.77;83.95;101869.84;6182232;23;20013;-61
2023/08/17 11:43:06;;;;;;;12.55;10.23;;;;;;;18.83;85.04;101869.66;6157074;23;20008;-61